sensor_id;sensor_type;location;lat;lon;timestamp;temperature;humidity
37052;DHT22;22964;52.272;13.356;2023-01-24T00:01:27;5.70;79.30
37052;DHT22;22964;52.272;13.356;2023-01-24T00:03:53;5.70;79.40
37052;DHT22;22964;52.272;13.356;2023-01-24T00:06:19;5.60;79.40
37052;DHT22;22964;52.272;13.356;2023-01-24T00:09:23;5.70;79.50
37052;DHT22;22964;52.272;13.356;2023-01-24T00:11:48;5.60;79.40
37052;DHT22;22964;52.272;13.356;2023-01-24T00:14:14;5.60;80.40
37052;DHT22;22964;52.272;13.356;2023-01-24T00:16:40;5.60;79.60
37052;DHT22;22964;52.272;13.356;2023-01-24T00:19:06;5.60;79.60
37052;DHT22;22964;52.272;13.356;2023-01-24T00:21:35;5.60;79.60
37052;DHT22;22964;52.272;13.356;2023-01-24T00:24:01;5.60;79.60
37052;DHT22;22964;52.272;13.356;2023-01-24T00:26:26;5.60;79.70
37052;DHT22;22964;52.272;13.356;2023-01-24T00:28:54;5.50;79.60
37052;DHT22;22964;52.272;13.356;2023-01-24T00:31:22;5.60;79.70
37052;DHT22;22964;52.272;13.356;2023-01-24T00:33:48;5.50;79.50
37052;DHT22;22964;52.272;13.356;2023-01-24T00:36:14;5.50;79.50
37052;DHT22;22964;52.272;13.356;2023-01-24T00:38:40;5.60;79.60
37052;DHT22;22964;52.272;13.356;2023-01-24T00:41:06;5.50;79.60
37052;DHT22;22964;52.272;13.356;2023-01-24T00:43:43;5.50;79.60
37052;DHT22;22964;52.272;13.356;2023-01-24T00:46:11;5.50;79.60
37052;DHT22;22964;52.272;13.356;2023-01-24T00:48:39;5.50;79.30
37052;DHT22;22964;52.272;13.356;2023-01-24T00:51:05;5.60;79.70
37052;DHT22;22964;52.272;13.356;2023-01-24T00:53:30;5.50;79.30
37052;DHT22;22964;52.272;13.356;2023-01-24T00:55:56;5.50;79.30
37052;DHT22;22964;52.272;13.356;2023-01-24T00:58:23;5.50;80.20
37052;DHT22;22964;52.272;13.356;2023-01-24T01:01:11;5.50;79.40
37052;DHT22;22964;52.272;13.356;2023-01-24T01:03:44;5.50;80.20
37052;DHT22;22964;52.272;13.356;2023-01-24T01:06:14;5.50;79.40
37052;DHT22;22964;52.272;13.356;2023-01-24T01:08:41;5.50;79.30
37052;DHT22;22964;52.272;13.356;2023-01-24T01:11:06;5.50;79.30
37052;DHT22;22964;52.272;13.356;2023-01-24T01:13:33;5.40;80.20
37052;DHT22;22964;52.272;13.356;2023-01-24T01:16:09;5.40;80.30
37052;DHT22;22964;52.272;13.356;2023-01-24T01:18:35;5.40;79.60
37052;DHT22;22964;52.272;13.356;2023-01-24T01:21:01;5.40;79.40
37052;DHT22;22964;52.272;13.356;2023-01-24T01:23:27;5.40;79.40
37052;DHT22;22964;52.272;13.356;2023-01-24T01:25:57;5.40;79.40
37052;DHT22;22964;52.272;13.356;2023-01-24T01:28:33;5.40;79.40
37052;DHT22;22964;52.272;13.356;2023-01-24T01:31:01;5.40;79.40
37052;DHT22;22964;52.272;13.356;2023-01-24T01:33:27;5.40;79.40
37052;DHT22;22964;52.272;13.356;2023-01-24T01:35:53;5.40;79.60
37052;DHT22;22964;52.272;13.356;2023-01-24T01:38:20;5.40;79.60
37052;DHT22;22964;52.272;13.356;2023-01-24T01:40:56;5.40;79.50
37052;DHT22;22964;52.272;13.356;2023-01-24T01:43:24;5.40;79.40
37052;DHT22;22964;52.272;13.356;2023-01-24T01:46:08;5.30;79.20
37052;DHT22;22964;52.272;13.356;2023-01-24T01:48:44;5.40;79.10
37052;DHT22;22964;52.272;13.356;2023-01-24T01:51:42;5.40;79.00
37052;DHT22;22964;52.272;13.356;2023-01-24T01:54:22;5.30;79.00
37052;DHT22;22964;52.272;13.356;2023-01-24T01:57:04;5.30;78.90
37052;DHT22;22964;52.272;13.356;2023-01-24T02:00:01;5.40;78.90
37052;DHT22;22964;52.272;13.356;2023-01-24T02:02:42;5.30;78.70
37052;DHT22;22964;52.272;13.356;2023-01-24T02:05:11;5.30;78.90
37052;DHT22;22964;52.272;13.356;2023-01-24T02:07:50;5.30;78.90
37052;DHT22;22964;52.272;13.356;2023-01-24T02:10:20;5.30;78.90
37052;DHT22;22964;52.272;13.356;2023-01-24T02:12:53;5.30;78.90
37052;DHT22;22964;52.272;13.356;2023-01-24T02:15:22;5.30;79.00
37052;DHT22;22964;52.272;13.356;2023-01-24T02:18:08;5.30;78.90
37052;DHT22;22964;52.272;13.356;2023-01-24T02:20:41;5.30;78.90
37052;DHT22;22964;52.272;13.356;2023-01-24T02:28:15;5.30;78.90
37052;DHT22;22964;52.272;13.356;2023-01-24T02:30:41;5.30;78.30
37052;DHT22;22964;52.272;13.356;2023-01-24T02:33:19;5.30;79.00
37052;DHT22;22964;52.272;13.356;2023-01-24T02:35:46;5.30;79.00
37052;DHT22;22964;52.272;13.356;2023-01-24T02:40:50;5.30;79.00
37052;DHT22;22964;52.272;13.356;2023-01-24T02:43:17;5.30;79.00
37052;DHT22;22964;52.272;13.356;2023-01-24T02:45:45;5.40;79.00
37052;DHT22;22964;52.272;13.356;2023-01-24T02:48:18;5.30;78.90
37052;DHT22;22964;52.272;13.356;2023-01-24T02:50:54;5.40;78.80
37052;DHT22;22964;52.272;13.356;2023-01-24T02:53:38;5.30;78.70
37052;DHT22;22964;52.272;13.356;2023-01-24T02:56:07;5.30;78.70
37052;DHT22;22964;52.272;13.356;2023-01-24T02:58:52;5.30;78.80
37052;DHT22;22964;52.272;13.356;2023-01-24T03:01:20;5.30;78.80
37052;DHT22;22964;52.272;13.356;2023-01-24T03:03:51;5.30;78.80
37052;DHT22;22964;52.272;13.356;2023-01-24T03:06:19;5.30;78.90
37052;DHT22;22964;52.272;13.356;2023-01-24T03:08:45;5.30;78.80
37052;DHT22;22964;52.272;13.356;2023-01-24T03:11:18;5.30;78.60
37052;DHT22;22964;52.272;13.356;2023-01-24T03:13:44;5.30;78.50
37052;DHT22;22964;52.272;13.356;2023-01-24T03:16:29;5.20;78.40
37052;DHT22;22964;52.272;13.356;2023-01-24T03:19:16;5.20;78.20
37052;DHT22;22964;52.272;13.356;2023-01-24T03:22:02;5.20;79.00
37052;DHT22;22964;52.272;13.356;2023-01-24T03:24:47;5.10;78.10
37052;DHT22;22964;52.272;13.356;2023-01-24T03:27:31;5.10;78.10
37052;DHT22;22964;52.272;13.356;2023-01-24T03:30:19;5.10;78.10
37052;DHT22;22964;52.272;13.356;2023-01-24T03:33:04;5.10;78.10
37052;DHT22;22964;52.272;13.356;2023-01-24T03:35:49;5.10;78.10
37052;DHT22;22964;52.272;13.356;2023-01-24T03:38:30;5.00;77.90
37052;DHT22;22964;52.272;13.356;2023-01-24T03:41:15;5.00;78.00
37052;DHT22;22964;52.272;13.356;2023-01-24T03:43:46;5.00;78.00
37052;DHT22;22964;52.272;13.356;2023-01-24T03:46:13;4.90;77.90
37052;DHT22;22964;52.272;13.356;2023-01-24T03:49:05;4.90;77.90
37052;DHT22;22964;52.272;13.356;2023-01-24T03:51:35;4.90;77.80
37052;DHT22;22964;52.272;13.356;2023-01-24T03:54:19;4.90;77.90
37052;DHT22;22964;52.272;13.356;2023-01-24T03:56:56;4.90;78.00
37052;DHT22;22964;52.272;13.356;2023-01-24T03:59:23;5.00;77.90
37052;DHT22;22964;52.272;13.356;2023-01-24T04:01:52;4.90;77.90
37052;DHT22;22964;52.272;13.356;2023-01-24T04:04:35;4.90;77.80
37052;DHT22;22964;52.272;13.356;2023-01-24T04:07:22;4.90;78.10
37052;DHT22;22964;52.272;13.356;2023-01-24T04:09:53;4.90;78.00
37052;DHT22;22964;52.272;13.356;2023-01-24T04:12:36;4.90;78.00
37052;DHT22;22964;52.272;13.356;2023-01-24T04:15:03;4.90;77.90
37052;DHT22;22964;52.272;13.356;2023-01-24T04:17:29;4.90;77.90
37052;DHT22;22964;52.272;13.356;2023-01-24T04:19:56;4.90;78.00
37052;DHT22;22964;52.272;13.356;2023-01-24T04:22:23;4.90;77.70
37052;DHT22;22964;52.272;13.356;2023-01-24T04:25:01;4.90;77.60
37052;DHT22;22964;52.272;13.356;2023-01-24T04:27:48;4.90;77.70
37052;DHT22;22964;52.272;13.356;2023-01-24T04:30:41;4.90;78.60
37052;DHT22;22964;52.272;13.356;2023-01-24T04:33:19;4.90;77.40
37052;DHT22;22964;52.272;13.356;2023-01-24T04:35:45;4.90;77.60
37052;DHT22;22964;52.272;13.356;2023-01-24T04:38:14;4.90;77.50
37052;DHT22;22964;52.272;13.356;2023-01-24T04:41:02;4.90;77.40
37052;DHT22;22964;52.272;13.356;2023-01-24T04:43:35;4.90;78.20
37052;DHT22;22964;52.272;13.356;2023-01-24T04:46:08;4.90;77.70
37052;DHT22;22964;52.272;13.356;2023-01-24T04:49:03;4.90;77.60
37052;DHT22;22964;52.272;13.356;2023-01-24T04:51:39;4.90;77.60
37052;DHT22;22964;52.272;13.356;2023-01-24T04:54:11;4.90;77.60
37052;DHT22;22964;52.272;13.356;2023-01-24T04:56:37;4.90;77.70
37052;DHT22;22964;52.272;13.356;2023-01-24T04:59:04;4.90;77.60
37052;DHT22;22964;52.272;13.356;2023-01-24T05:01:30;4.90;77.70
37052;DHT22;22964;52.272;13.356;2023-01-24T05:04:06;4.90;77.40
37052;DHT22;22964;52.272;13.356;2023-01-24T05:06:33;5.00;77.50
37052;DHT22;22964;52.272;13.356;2023-01-24T05:09:09;5.00;77.50
37052;DHT22;22964;52.272;13.356;2023-01-24T05:11:47;5.00;77.50
37052;DHT22;22964;52.272;13.356;2023-01-24T05:14:14;5.00;77.50
37052;DHT22;22964;52.272;13.356;2023-01-24T05:16:40;5.00;77.50
37052;DHT22;22964;52.272;13.356;2023-01-24T05:19:06;5.00;77.40
37052;DHT22;22964;52.272;13.356;2023-01-24T05:21:32;5.10;77.50
37052;DHT22;22964;52.272;13.356;2023-01-24T05:23:58;5.10;77.40
37052;DHT22;22964;52.272;13.356;2023-01-24T05:26:25;5.10;77.40
37052;DHT22;22964;52.272;13.356;2023-01-24T05:28:53;5.10;77.30
37052;DHT22;22964;52.272;13.356;2023-01-24T05:31:20;5.20;77.10
37052;DHT22;22964;52.272;13.356;2023-01-24T05:33:56;5.10;76.70
37052;DHT22;22964;52.272;13.356;2023-01-24T05:36:23;5.20;76.90
37052;DHT22;22964;52.272;13.356;2023-01-24T05:38:54;5.10;76.90
37052;DHT22;22964;52.272;13.356;2023-01-24T05:41:20;5.10;77.10
37052;DHT22;22964;52.272;13.356;2023-01-24T05:43:49;5.10;77.00
37052;DHT22;22964;52.272;13.356;2023-01-24T05:46:18;5.10;77.10
37052;DHT22;22964;52.272;13.356;2023-01-24T05:49:08;5.20;77.30
37052;DHT22;22964;52.272;13.356;2023-01-24T05:51:33;5.20;77.10
37052;DHT22;22964;52.272;13.356;2023-01-24T05:54:00;5.20;77.00
37052;DHT22;22964;52.272;13.356;2023-01-24T05:56:52;5.20;76.90
37052;DHT22;22964;52.272;13.356;2023-01-24T05:59:21;5.20;76.80
37052;DHT22;22964;52.272;13.356;2023-01-24T06:01:46;5.20;76.80
37052;DHT22;22964;52.272;13.356;2023-01-24T06:04:12;5.20;76.90
37052;DHT22;22964;52.272;13.356;2023-01-24T06:06:40;5.20;77.00
37052;DHT22;22964;52.272;13.356;2023-01-24T06:09:07;5.20;76.90
37052;DHT22;22964;52.272;13.356;2023-01-24T06:11:39;5.20;76.90
37052;DHT22;22964;52.272;13.356;2023-01-24T06:14:17;5.20;76.90
37052;DHT22;22964;52.272;13.356;2023-01-24T06:16:50;5.30;77.10
37052;DHT22;22964;52.272;13.356;2023-01-24T06:19:55;5.30;76.80
37052;DHT22;22964;52.272;13.356;2023-01-24T06:22:51;5.30;76.80
37052;DHT22;22964;52.272;13.356;2023-01-24T06:25:23;5.40;76.60
37052;DHT22;22964;52.272;13.356;2023-01-24T06:27:52;5.30;76.50
37052;DHT22;22964;52.272;13.356;2023-01-24T06:30:21;5.30;76.60
37052;DHT22;22964;52.272;13.356;2023-01-24T06:38:21;5.40;76.50
37052;DHT22;22964;52.272;13.356;2023-01-24T06:41:01;5.40;76.30
37052;DHT22;22964;52.272;13.356;2023-01-24T06:43:35;5.40;76.40
37052;DHT22;22964;52.272;13.356;2023-01-24T06:46:11;5.40;76.40
37052;DHT22;22964;52.272;13.356;2023-01-24T06:52:21;5.40;76.20
37052;DHT22;22964;52.272;13.356;2023-01-24T06:54:49;5.50;76.40
37052;DHT22;22964;52.272;13.356;2023-01-24T06:57:17;5.50;76.30
37052;DHT22;22964;52.272;13.356;2023-01-24T06:59:56;5.50;76.10
37052;DHT22;22964;52.272;13.356;2023-01-24T07:02:47;5.50;76.10
37052;DHT22;22964;52.272;13.356;2023-01-24T07:05:23;5.50;76.00
37052;DHT22;22964;52.272;13.356;2023-01-24T07:08:09;5.50;75.70
37052;DHT22;22964;52.272;13.356;2023-01-24T07:11:14;5.50;75.60
37052;DHT22;22964;52.272;13.356;2023-01-24T07:14:09;5.40;75.70
37052;DHT22;22964;52.272;13.356;2023-01-24T07:16:39;5.40;75.60
37052;DHT22;22964;52.272;13.356;2023-01-24T07:19:23;5.40;75.80
37052;DHT22;22964;52.272;13.356;2023-01-24T07:21:52;5.40;76.60
37052;DHT22;22964;52.272;13.356;2023-01-24T07:24:29;5.40;75.80
37052;DHT22;22964;52.272;13.356;2023-01-24T07:26:56;5.40;75.50
37052;DHT22;22964;52.272;13.356;2023-01-24T07:29:22;5.40;75.80
37052;DHT22;22964;52.272;13.356;2023-01-24T07:32:00;5.40;75.80
37052;DHT22;22964;52.272;13.356;2023-01-24T07:35:07;5.40;75.20
37052;DHT22;22964;52.272;13.356;2023-01-24T07:37:43;5.40;75.70
37052;DHT22;22964;52.272;13.356;2023-01-24T07:40:11;5.40;75.80
37052;DHT22;22964;52.272;13.356;2023-01-24T07:42:48;5.40;75.60
37052;DHT22;22964;52.272;13.356;2023-01-24T07:45:24;5.40;75.60
37052;DHT22;22964;52.272;13.356;2023-01-24T07:48:07;5.40;75.80
37052;DHT22;22964;52.272;13.356;2023-01-24T07:50:34;5.40;75.70
37052;DHT22;22964;52.272;13.356;2023-01-24T07:53:28;5.40;75.80
37052;DHT22;22964;52.272;13.356;2023-01-24T07:56:07;5.40;75.70
37052;DHT22;22964;52.272;13.356;2023-01-24T07:59:10;5.40;75.80
37052;DHT22;22964;52.272;13.356;2023-01-24T08:02:10;5.50;75.80
37052;DHT22;22964;52.272;13.356;2023-01-24T08:04:36;5.50;75.60
37052;DHT22;22964;52.272;13.356;2023-01-24T08:07:07;5.50;75.60
37052;DHT22;22964;52.272;13.356;2023-01-24T08:09:46;5.50;75.40
37052;DHT22;22964;52.272;13.356;2023-01-24T08:12:24;5.50;75.20
37052;DHT22;22964;52.272;13.356;2023-01-24T08:15:00;5.40;76.10
37052;DHT22;22964;52.272;13.356;2023-01-24T08:17:40;5.40;75.40
37052;DHT22;22964;52.272;13.356;2023-01-24T08:20:26;5.40;75.30
37052;DHT22;22964;52.272;13.356;2023-01-24T08:23:01;5.40;75.70
37052;DHT22;22964;52.272;13.356;2023-01-24T08:25:40;5.40;75.50
37052;DHT22;22964;52.272;13.356;2023-01-24T08:28:15;5.40;75.80
37052;DHT22;22964;52.272;13.356;2023-01-24T08:30:50;5.40;75.80
37052;DHT22;22964;52.272;13.356;2023-01-24T08:33:35;5.50;75.80
37052;DHT22;22964;52.272;13.356;2023-01-24T08:36:03;5.50;75.50
37052;DHT22;22964;52.272;13.356;2023-01-24T08:38:32;5.50;75.70
37052;DHT22;22964;52.272;13.356;2023-01-24T08:41:11;5.50;75.40
37052;DHT22;22964;52.272;13.356;2023-01-24T08:44:05;5.50;75.00
37052;DHT22;22964;52.272;13.356;2023-01-24T08:46:43;5.40;75.00
37052;DHT22;22964;52.272;13.356;2023-01-24T08:49:17;5.40;75.60
37052;DHT22;22964;52.272;13.356;2023-01-24T08:51:47;5.40;75.50
37052;DHT22;22964;52.272;13.356;2023-01-24T08:57:43;5.40;75.60
37052;DHT22;22964;52.272;13.356;2023-01-24T09:00:32;5.40;75.60
37052;DHT22;22964;52.272;13.356;2023-01-24T09:03:00;5.50;75.40
37052;DHT22;22964;52.272;13.356;2023-01-24T09:05:34;5.50;76.30
37052;DHT22;22964;52.272;13.356;2023-01-24T09:08:15;5.40;75.20
37052;DHT22;22964;52.272;13.356;2023-01-24T09:10:51;5.50;75.40
37052;DHT22;22964;52.272;13.356;2023-01-24T09:13:19;5.50;75.50
37052;DHT22;22964;52.272;13.356;2023-01-24T09:19:31;5.50;75.00
37052;DHT22;22964;52.272;13.356;2023-01-24T09:22:05;5.40;75.00
37052;DHT22;22964;52.272;13.356;2023-01-24T09:24:59;5.40;75.10
37052;DHT22;22964;52.272;13.356;2023-01-24T09:27:28;5.40;75.10
37052;DHT22;22964;52.272;13.356;2023-01-24T09:30:11;5.40;75.30
37052;DHT22;22964;52.272;13.356;2023-01-24T09:32:39;5.40;75.30
37052;DHT22;22964;52.272;13.356;2023-01-24T09:35:16;5.40;75.30
37052;DHT22;22964;52.272;13.356;2023-01-24T09:38:01;5.40;75.50
37052;DHT22;22964;52.272;13.356;2023-01-24T09:40:44;5.40;75.80
37052;DHT22;22964;52.272;13.356;2023-01-24T09:46:36;5.50;76.40
37052;DHT22;22964;52.272;13.356;2023-01-24T09:49:26;5.50;76.60
37052;DHT22;22964;52.272;13.356;2023-01-24T09:51:59;5.60;76.90
37052;DHT22;22964;52.272;13.356;2023-01-24T09:54:58;5.70;76.70
37052;DHT22;22964;52.272;13.356;2023-01-24T10:00:54;5.80;76.50
37052;DHT22;22964;52.272;13.356;2023-01-24T10:03:22;5.90;76.30
37052;DHT22;22964;52.272;13.356;2023-01-24T10:06:08;5.90;76.20
37052;DHT22;22964;52.272;13.356;2023-01-24T10:09:15;5.90;75.80
37052;DHT22;22964;52.272;13.356;2023-01-24T10:12:06;5.90;75.50
37052;DHT22;22964;52.272;13.356;2023-01-24T10:18:14;6.00;75.30
37052;DHT22;22964;52.272;13.356;2023-01-24T10:23:34;6.00;75.00
37052;DHT22;22964;52.272;13.356;2023-01-24T10:26:55;6.00;75.20
37052;DHT22;22964;52.272;13.356;2023-01-24T10:29:26;6.00;75.10
37052;DHT22;22964;52.272;13.356;2023-01-24T10:32:08;6.10;74.90
37052;DHT22;22964;52.272;13.356;2023-01-24T10:34:44;6.10;74.70
37052;DHT22;22964;52.272;13.356;2023-01-24T10:37:22;6.00;74.90
37052;DHT22;22964;52.272;13.356;2023-01-24T10:39:48;6.10;74.70
37052;DHT22;22964;52.272;13.356;2023-01-24T10:42:45;6.10;74.40
37052;DHT22;22964;52.272;13.356;2023-01-24T10:45:29;6.10;74.40
37052;DHT22;22964;52.272;13.356;2023-01-24T10:48:54;6.10;74.50
37052;DHT22;22964;52.272;13.356;2023-01-24T10:51:20;6.10;74.80
37052;DHT22;22964;52.272;13.356;2023-01-24T10:53:46;6.10;74.80
37052;DHT22;22964;52.272;13.356;2023-01-24T10:56:18;6.10;75.00
37052;DHT22;22964;52.272;13.356;2023-01-24T10:59:11;6.20;74.70
37052;DHT22;22964;52.272;13.356;2023-01-24T11:01:50;6.20;75.00
37052;DHT22;22964;52.272;13.356;2023-01-24T11:04:27;6.30;75.00
37052;DHT22;22964;52.272;13.356;2023-01-24T11:07:04;6.30;75.00
37052;DHT22;22964;52.272;13.356;2023-01-24T11:09:33;6.40;74.70
37052;DHT22;22964;52.272;13.356;2023-01-24T11:12:13;6.40;74.40
37052;DHT22;22964;52.272;13.356;2023-01-24T11:14:48;6.50;74.50
37052;DHT22;22964;52.272;13.356;2023-01-24T11:17:37;6.40;74.20
37052;DHT22;22964;52.272;13.356;2023-01-24T11:20:36;6.50;74.40
37052;DHT22;22964;52.272;13.356;2023-01-24T11:23:44;6.50;74.30
37052;DHT22;22964;52.272;13.356;2023-01-24T11:27:22;6.50;74.20
37052;DHT22;22964;52.272;13.356;2023-01-24T11:29:38;6.60;73.70
37052;DHT22;22964;52.272;13.356;2023-01-24T11:38:27;6.60;74.30
37052;DHT22;22964;52.272;13.356;2023-01-24T11:41:22;6.60;74.20
37052;DHT22;22964;52.272;13.356;2023-01-24T11:44:31;6.70;74.20
37052;DHT22;22964;52.272;13.356;2023-01-24T11:47:21;6.70;74.40
37052;DHT22;22964;52.272;13.356;2023-01-24T11:49:51;6.70;74.40
37052;DHT22;22964;52.272;13.356;2023-01-24T11:58:22;6.80;74.50
37052;DHT22;22964;52.272;13.356;2023-01-24T12:01:39;6.80;74.10
37052;DHT22;22964;52.272;13.356;2023-01-24T12:22:05;6.80;73.40
37052;DHT22;22964;52.272;13.356;2023-01-24T12:31:51;6.80;73.50
37052;DHT22;22964;52.272;13.356;2023-01-24T12:38:00;6.80;73.40
37052;DHT22;22964;52.272;13.356;2023-01-24T12:41:03;6.80;73.70
37052;DHT22;22964;52.272;13.356;2023-01-24T12:44:18;6.80;74.00
37052;DHT22;22964;52.272;13.356;2023-01-24T12:49:45;6.80;74.00
37052;DHT22;22964;52.272;13.356;2023-01-24T12:55:28;6.90;73.70
37052;DHT22;22964;52.272;13.356;2023-01-24T12:58:26;6.90;73.20
37052;DHT22;22964;52.272;13.356;2023-01-24T13:04:19;6.90;73.70
37052;DHT22;22964;52.272;13.356;2023-01-24T13:07:32;6.90;73.50
37052;DHT22;22964;52.272;13.356;2023-01-24T13:10:13;6.90;74.10
37052;DHT22;22964;52.272;13.356;2023-01-24T13:12:44;6.90;73.30
37052;DHT22;22964;52.272;13.356;2023-01-24T13:15:45;6.90;73.30
37052;DHT22;22964;52.272;13.356;2023-01-24T13:21:21;6.90;73.00
37052;DHT22;22964;52.272;13.356;2023-01-24T13:27:28;6.90;73.10
37052;DHT22;22964;52.272;13.356;2023-01-24T13:33:48;6.90;73.50
37052;DHT22;22964;52.272;13.356;2023-01-24T13:36:57;6.90;73.40
37052;DHT22;22964;52.272;13.356;2023-01-24T13:42:57;6.90;73.40
37052;DHT22;22964;52.272;13.356;2023-01-24T13:54:05;6.90;73.60
37052;DHT22;22964;52.272;13.356;2023-01-24T14:03:16;6.90;73.70
37052;DHT22;22964;52.272;13.356;2023-01-24T14:21:51;6.90;74.20
37052;DHT22;22964;52.272;13.356;2023-01-24T14:27:21;6.90;74.00
37052;DHT22;22964;52.272;13.356;2023-01-24T14:29:52;7.00;74.10
37052;DHT22;22964;52.272;13.356;2023-01-24T14:32:27;7.00;73.60
37052;DHT22;22964;52.272;13.356;2023-01-24T14:37:49;7.10;73.50
37052;DHT22;22964;52.272;13.356;2023-01-24T14:40:25;7.10;73.80
37052;DHT22;22964;52.272;13.356;2023-01-24T14:42:58;7.10;73.40
37052;DHT22;22964;52.272;13.356;2023-01-24T14:48:56;7.10;72.90
37052;DHT22;22964;52.272;13.356;2023-01-24T14:51:23;7.10;73.40
37052;DHT22;22964;52.272;13.356;2023-01-24T14:53:52;7.10;73.40
37052;DHT22;22964;52.272;13.356;2023-01-24T14:56:18;7.10;73.10
37052;DHT22;22964;52.272;13.356;2023-01-24T14:58:44;7.10;73.20
37052;DHT22;22964;52.272;13.356;2023-01-24T15:01:39;7.20;73.30
37052;DHT22;22964;52.272;13.356;2023-01-24T15:07:50;7.20;73.30
37052;DHT22;22964;52.272;13.356;2023-01-24T15:10:22;7.20;73.10
37052;DHT22;22964;52.272;13.356;2023-01-24T15:12:52;7.30;73.30
37052;DHT22;22964;52.272;13.356;2023-01-24T15:15:45;7.20;73.10
37052;DHT22;22964;52.272;13.356;2023-01-24T15:18:35;7.30;72.90
37052;DHT22;22964;52.272;13.356;2023-01-24T15:21:01;7.30;72.80
37052;DHT22;22964;52.272;13.356;2023-01-24T15:23:30;7.20;73.10
37052;DHT22;22964;52.272;13.356;2023-01-24T15:25:57;7.30;72.90
37052;DHT22;22964;52.272;13.356;2023-01-24T15:28:40;7.30;73.20
37052;DHT22;22964;52.272;13.356;2023-01-24T15:31:18;7.30;73.30
37052;DHT22;22964;52.272;13.356;2023-01-24T15:33:54;7.30;73.10
37052;DHT22;22964;52.272;13.356;2023-01-24T15:38:59;7.30;73.30
37052;DHT22;22964;52.272;13.356;2023-01-24T15:41:46;7.40;73.10
37052;DHT22;22964;52.272;13.356;2023-01-24T15:44:44;7.40;72.60
37052;DHT22;22964;52.272;13.356;2023-01-24T15:47:19;7.40;72.70
37052;DHT22;22964;52.272;13.356;2023-01-24T15:50:19;7.30;72.60
37052;DHT22;22964;52.272;13.356;2023-01-24T15:53:25;7.40;72.70
37052;DHT22;22964;52.272;13.356;2023-01-24T15:55:54;7.30;72.50
37052;DHT22;22964;52.272;13.356;2023-01-24T15:58:23;7.40;72.90
37052;DHT22;22964;52.272;13.356;2023-01-24T16:00:56;7.30;73.00
37052;DHT22;22964;52.272;13.356;2023-01-24T16:03:22;7.30;73.20
37052;DHT22;22964;52.272;13.356;2023-01-24T16:05:48;7.40;73.60
37052;DHT22;22964;52.272;13.356;2023-01-24T16:08:13;7.40;73.60
37052;DHT22;22964;52.272;13.356;2023-01-24T16:10:40;7.40;73.60
37052;DHT22;22964;52.272;13.356;2023-01-24T16:16:01;7.50;73.20
37052;DHT22;22964;52.272;13.356;2023-01-24T16:18:29;7.60;73.00
37052;DHT22;22964;52.272;13.356;2023-01-24T16:20:54;7.60;72.90
37052;DHT22;22964;52.272;13.356;2023-01-24T16:23:20;7.60;72.70
37052;DHT22;22964;52.272;13.356;2023-01-24T16:25:49;7.70;72.60
37052;DHT22;22964;52.272;13.356;2023-01-24T16:28:21;7.60;72.40
37052;DHT22;22964;52.272;13.356;2023-01-24T16:30:48;7.60;72.10
37052;DHT22;22964;52.272;13.356;2023-01-24T16:33:18;7.70;72.00
37052;DHT22;22964;52.272;13.356;2023-01-24T16:35:45;7.70;71.60
37052;DHT22;22964;52.272;13.356;2023-01-24T16:38:12;7.70;71.80
37052;DHT22;22964;52.272;13.356;2023-01-24T16:40:38;7.60;71.80
37052;DHT22;22964;52.272;13.356;2023-01-24T16:43:06;7.60;71.90
37052;DHT22;22964;52.272;13.356;2023-01-24T16:45:32;7.60;72.00
37052;DHT22;22964;52.272;13.356;2023-01-24T16:47:58;7.60;72.10
37052;DHT22;22964;52.272;13.356;2023-01-24T16:50:25;7.60;72.30
37052;DHT22;22964;52.272;13.356;2023-01-24T16:52:52;7.60;72.40
37052;DHT22;22964;52.272;13.356;2023-01-24T16:55:18;7.70;73.20
37052;DHT22;22964;52.272;13.356;2023-01-24T16:57:44;7.70;72.20
37052;DHT22;22964;52.272;13.356;2023-01-24T17:00:11;7.70;72.30
37052;DHT22;22964;52.272;13.356;2023-01-24T17:02:39;7.70;72.10
37052;DHT22;22964;52.272;13.356;2023-01-24T17:05:05;7.70;71.80
37052;DHT22;22964;52.272;13.356;2023-01-24T17:07:30;7.70;71.80
37052;DHT22;22964;52.272;13.356;2023-01-24T17:09:56;7.70;71.90
37052;DHT22;22964;52.272;13.356;2023-01-24T17:12:22;7.70;71.90
37052;DHT22;22964;52.272;13.356;2023-01-24T17:14:50;7.70;71.80
37052;DHT22;22964;52.272;13.356;2023-01-24T17:17:16;7.70;71.80
37052;DHT22;22964;52.272;13.356;2023-01-24T17:19:41;7.70;71.80
37052;DHT22;22964;52.272;13.356;2023-01-24T17:22:07;7.70;71.70
37052;DHT22;22964;52.272;13.356;2023-01-24T17:24:33;7.70;71.80
37052;DHT22;22964;52.272;13.356;2023-01-24T17:26:59;7.70;71.80
37052;DHT22;22964;52.272;13.356;2023-01-24T17:29:24;7.70;71.80
37052;DHT22;22964;52.272;13.356;2023-01-24T17:31:54;7.70;71.60
37052;DHT22;22964;52.272;13.356;2023-01-24T17:34:20;7.70;71.50
37052;DHT22;22964;52.272;13.356;2023-01-24T17:36:46;7.70;71.60
37052;DHT22;22964;52.272;13.356;2023-01-24T17:39:12;7.70;71.70
37052;DHT22;22964;52.272;13.356;2023-01-24T17:41:39;7.70;71.70
37052;DHT22;22964;52.272;13.356;2023-01-24T17:44:07;7.70;71.80
37052;DHT22;22964;52.272;13.356;2023-01-24T17:46:33;7.70;72.00
37052;DHT22;22964;52.272;13.356;2023-01-24T17:48:59;7.70;71.80
37052;DHT22;22964;52.272;13.356;2023-01-24T17:51:24;7.70;71.40
37052;DHT22;22964;52.272;13.356;2023-01-24T17:53:50;7.80;71.20
37052;DHT22;22964;52.272;13.356;2023-01-24T17:56:16;7.70;71.10
37052;DHT22;22964;52.272;13.356;2023-01-24T17:58:43;7.70;71.10
37052;DHT22;22964;52.272;13.356;2023-01-24T18:01:09;7.70;71.20
37052;DHT22;22964;52.272;13.356;2023-01-24T18:03:35;7.60;71.40
37052;DHT22;22964;52.272;13.356;2023-01-24T18:06:03;7.60;71.60
37052;DHT22;22964;52.272;13.356;2023-01-24T18:08:29;7.60;71.50
37052;DHT22;22964;52.272;13.356;2023-01-24T18:10:55;7.60;71.70
37052;DHT22;22964;52.272;13.356;2023-01-24T18:13:21;7.60;71.70
37052;DHT22;22964;52.272;13.356;2023-01-24T18:15:47;7.60;71.50
37052;DHT22;22964;52.272;13.356;2023-01-24T18:18:13;7.60;71.30
37052;DHT22;22964;52.272;13.356;2023-01-24T18:20:40;7.60;71.30
37052;DHT22;22964;52.272;13.356;2023-01-24T18:23:06;7.60;71.50
37052;DHT22;22964;52.272;13.356;2023-01-24T18:25:33;7.60;71.70
37052;DHT22;22964;52.272;13.356;2023-01-24T18:27:59;7.60;71.90
37052;DHT22;22964;52.272;13.356;2023-01-24T18:30:25;7.50;72.10
37052;DHT22;22964;52.272;13.356;2023-01-24T18:32:50;7.50;72.40
37052;DHT22;22964;52.272;13.356;2023-01-24T18:35:18;7.50;72.40
37052;DHT22;22964;52.272;13.356;2023-01-24T18:37:44;7.50;72.40
37052;DHT22;22964;52.272;13.356;2023-01-24T18:40:10;7.50;72.40
37052;DHT22;22964;52.272;13.356;2023-01-24T18:42:36;7.50;72.20
37052;DHT22;22964;52.272;13.356;2023-01-24T18:45:02;7.50;72.10
37052;DHT22;22964;52.272;13.356;2023-01-24T18:47:28;7.50;72.20
37052;DHT22;22964;52.272;13.356;2023-01-24T18:49:53;7.50;72.30